sensor_id;sensor_type;location;lat;lon;timestamp;P1;durP1;ratioP1;P2;durP2;ratioP2
11490;SDS011;5802;52.832;4.758;2024-01-30T00:01:16;4.97;;;3.65;;
11490;SDS011;5802;52.832;4.758;2024-01-30T00:03:43;4.60;;;3.47;;
11490;SDS011;5802;52.832;4.758;2024-01-30T00:06:11;4.15;;;3.20;;
11490;SDS011;5802;52.832;4.758;2024-01-30T00:08:37;3.95;;;2.92;;
11490;SDS011;5802;52.832;4.758;2024-01-30T00:11:06;5.00;;;3.13;;
11490;SDS011;5802;52.832;4.758;2024-01-30T00:13:34;4.63;;;3.38;;
11490;SDS011;5802;52.832;4.758;2024-01-30T00:16:00;4.60;;;3.33;;
11490;SDS011;5802;52.832;4.758;2024-01-30T00:18:27;4.53;;;3.10;;
11490;SDS011;5802;52.832;4.758;2024-01-30T00:20:54;4.85;;;3.03;;
11490;SDS011;5802;52.832;4.758;2024-01-30T00:23:21;4.40;;;3.05;;
11490;SDS011;5802;52.832;4.758;2024-01-30T00:25:48;5.25;;;2.85;;
11490;SDS011;5802;52.832;4.758;2024-01-30T00:28:16;3.60;;;2.80;;
11490;SDS011;5802;52.832;4.758;2024-01-30T00:30:43;4.50;;;3.28;;
11490;SDS011;5802;52.832;4.758;2024-01-30T00:33:10;4.80;;;3.20;;
11490;SDS011;5802;52.832;4.758;2024-01-30T00:35:36;4.57;;;3.10;;
11490;SDS011;5802;52.832;4.758;2024-01-30T00:38:03;3.55;;;2.63;;
11490;SDS011;5802;52.832;4.758;2024-01-30T00:40:31;3.83;;;2.72;;
11490;SDS011;5802;52.832;4.758;2024-01-30T00:42:58;4.75;;;3.20;;
11490;SDS011;5802;52.832;4.758;2024-01-30T00:45:27;4.93;;;3.17;;
11490;SDS011;5802;52.832;4.758;2024-01-30T00:47:53;5.97;;;3.00;;
11490;SDS011;5802;52.832;4.758;2024-01-30T00:50:20;4.03;;;2.83;;
11490;SDS011;5802;52.832;4.758;2024-01-30T00:52:47;6.15;;;3.03;;
11490;SDS011;5802;52.832;4.758;2024-01-30T00:55:14;3.78;;;2.88;;
11490;SDS011;5802;52.832;4.758;2024-01-30T00:57:41;4.65;;;3.15;;
11490;SDS011;5802;52.832;4.758;2024-01-30T01:00:08;5.30;;;3.20;;
11490;SDS011;5802;52.832;4.758;2024-01-30T01:02:36;6.13;;;2.90;;
11490;SDS011;5802;52.832;4.758;2024-01-30T01:05:04;6.80;;;3.00;;
11490;SDS011;5802;52.832;4.758;2024-01-30T01:07:31;3.63;;;2.60;;
11490;SDS011;5802;52.832;4.758;2024-01-30T01:09:58;4.47;;;2.92;;
11490;SDS011;5802;52.832;4.758;2024-01-30T01:12:25;3.85;;;3.00;;
11490;SDS011;5802;52.832;4.758;2024-01-30T01:14:52;3.85;;;2.90;;
11490;SDS011;5802;52.832;4.758;2024-01-30T01:17:19;7.55;;;3.20;;
11490;SDS011;5802;52.832;4.758;2024-01-30T01:19:47;5.65;;;3.03;;
11490;SDS011;5802;52.832;4.758;2024-01-30T01:22:14;6.63;;;3.00;;
11490;SDS011;5802;52.832;4.758;2024-01-30T01:24:42;3.03;;;2.53;;
11490;SDS011;5802;52.832;4.758;2024-01-30T01:27:09;3.92;;;2.90;;
11490;SDS011;5802;52.832;4.758;2024-01-30T01:29:37;3.05;;;2.65;;
11490;SDS011;5802;52.832;4.758;2024-01-30T01:32:04;3.67;;;2.70;;
11490;SDS011;5802;52.832;4.758;2024-01-30T01:34:31;3.50;;;2.58;;
11490;SDS011;5802;52.832;4.758;2024-01-30T01:37:00;4.38;;;3.00;;
11490;SDS011;5802;52.832;4.758;2024-01-30T01:39:27;5.65;;;2.97;;
11490;SDS011;5802;52.832;4.758;2024-01-30T01:41:53;3.72;;;3.00;;
11490;SDS011;5802;52.832;4.758;2024-01-30T01:44:20;3.85;;;2.85;;
11490;SDS011;5802;52.832;4.758;2024-01-30T01:46:47;3.92;;;3.03;;
11490;SDS011;5802;52.832;4.758;2024-01-30T01:49:14;4.45;;;2.85;;
11490;SDS011;5802;52.832;4.758;2024-01-30T01:51:41;3.33;;;2.60;;
11490;SDS011;5802;52.832;4.758;2024-01-30T01:54:11;3.72;;;2.72;;
11490;SDS011;5802;52.832;4.758;2024-01-30T01:56:38;3.38;;;2.40;;
11490;SDS011;5802;52.832;4.758;2024-01-30T01:59:07;3.55;;;2.65;;
11490;SDS011;5802;52.832;4.758;2024-01-30T02:01:34;3.92;;;2.90;;
11490;SDS011;5802;52.832;4.758;2024-01-30T02:04:03;3.10;;;2.55;;
11490;SDS011;5802;52.832;4.758;2024-01-30T02:06:30;3.33;;;2.63;;
11490;SDS011;5802;52.832;4.758;2024-01-30T02:08:58;4.30;;;2.78;;
11490;SDS011;5802;52.832;4.758;2024-01-30T02:11:26;3.97;;;2.80;;
11490;SDS011;5802;52.832;4.758;2024-01-30T02:13:53;4.95;;;2.72;;
11490;SDS011;5802;52.832;4.758;2024-01-30T02:16:20;4.05;;;2.70;;
11490;SDS011;5802;52.832;4.758;2024-01-30T02:18:47;3.30;;;2.53;;
11490;SDS011;5802;52.832;4.758;2024-01-30T02:21:15;3.30;;;2.35;;
11490;SDS011;5802;52.832;4.758;2024-01-30T02:23:43;3.75;;;2.80;;
11490;SDS011;5802;52.832;4.758;2024-01-30T02:26:10;3.83;;;2.55;;
11490;SDS011;5802;52.832;4.758;2024-01-30T02:28:37;3.97;;;2.83;;
11490;SDS011;5802;52.832;4.758;2024-01-30T02:31:04;3.22;;;2.40;;
11490;SDS011;5802;52.832;4.758;2024-01-30T02:33:31;5.20;;;2.97;;
11490;SDS011;5802;52.832;4.758;2024-01-30T02:35:58;3.17;;;2.35;;
11490;SDS011;5802;52.832;4.758;2024-01-30T02:38:27;3.05;;;2.45;;
11490;SDS011;5802;52.832;4.758;2024-01-30T02:40:54;3.67;;;2.38;;
11490;SDS011;5802;52.832;4.758;2024-01-30T02:43:21;3.30;;;2.28;;
11490;SDS011;5802;52.832;4.758;2024-01-30T02:45:48;3.17;;;2.55;;
11490;SDS011;5802;52.832;4.758;2024-01-30T02:48:15;3.55;;;2.72;;
11490;SDS011;5802;52.832;4.758;2024-01-30T02:50:41;2.90;;;2.42;;
11490;SDS011;5802;52.832;4.758;2024-01-30T02:53:08;2.88;;;2.30;;
11490;SDS011;5802;52.832;4.758;2024-01-30T02:55:37;3.33;;;2.60;;
11490;SDS011;5802;52.832;4.758;2024-01-30T02:58:03;3.08;;;2.40;;
11490;SDS011;5802;52.832;4.758;2024-01-30T03:00:30;2.92;;;2.38;;
11490;SDS011;5802;52.832;4.758;2024-01-30T03:02:57;3.25;;;2.50;;
11490;SDS011;5802;52.832;4.758;2024-01-30T03:05:24;3.08;;;2.55;;
11490;SDS011;5802;52.832;4.758;2024-01-30T03:07:51;2.63;;;2.30;;
11490;SDS011;5802;52.832;4.758;2024-01-30T03:10:18;2.72;;;2.47;;
11490;SDS011;5802;52.832;4.758;2024-01-30T03:12:46;3.35;;;2.50;;
11490;SDS011;5802;52.832;4.758;2024-01-30T03:15:13;2.90;;;2.50;;
11490;SDS011;5802;52.832;4.758;2024-01-30T03:17:40;2.60;;;2.22;;
11490;SDS011;5802;52.832;4.758;2024-01-30T03:20:07;4.18;;;2.67;;
11490;SDS011;5802;52.832;4.758;2024-01-30T03:22:35;3.30;;;2.67;;
11490;SDS011;5802;52.832;4.758;2024-01-30T03:25:02;3.10;;;2.50;;
11490;SDS011;5802;52.832;4.758;2024-01-30T03:27:29;3.45;;;2.50;;
11490;SDS011;5802;52.832;4.758;2024-01-30T03:29:57;3.03;;;2.55;;
11490;SDS011;5802;52.832;4.758;2024-01-30T03:32:24;3.15;;;2.60;;
11490;SDS011;5802;52.832;4.758;2024-01-30T03:34:51;3.25;;;2.50;;
11490;SDS011;5802;52.832;4.758;2024-01-30T03:37:18;2.97;;;2.67;;
11490;SDS011;5802;52.832;4.758;2024-01-30T03:39:45;2.58;;;2.22;;
11490;SDS011;5802;52.832;4.758;2024-01-30T03:42:12;3.65;;;2.20;;
11490;SDS011;5802;52.832;4.758;2024-01-30T03:44:38;4.05;;;2.42;;
11490;SDS011;5802;52.832;4.758;2024-01-30T03:47:07;3.38;;;2.40;;
11490;SDS011;5802;52.832;4.758;2024-01-30T03:49:33;2.80;;;2.33;;
11490;SDS011;5802;52.832;4.758;2024-01-30T03:52:00;3.33;;;2.17;;
11490;SDS011;5802;52.832;4.758;2024-01-30T03:54:27;4.63;;;2.55;;
11490;SDS011;5802;52.832;4.758;2024-01-30T03:56:54;2.78;;;2.30;;
11490;SDS011;5802;52.832;4.758;2024-01-30T03:59:21;2.65;;;2.10;;
11490;SDS011;5802;52.832;4.758;2024-01-30T04:01:49;2.53;;;2.28;;
11490;SDS011;5802;52.832;4.758;2024-01-30T04:04:18;2.67;;;2.17;;
11490;SDS011;5802;52.832;4.758;2024-01-30T04:06:45;3.97;;;2.38;;
11490;SDS011;5802;52.832;4.758;2024-01-30T04:09:12;2.63;;;2.10;;
11490;SDS011;5802;52.832;4.758;2024-01-30T04:11:39;2.67;;;2.33;;
11490;SDS011;5802;52.832;4.758;2024-01-30T04:14:06;2.60;;;2.10;;
11490;SDS011;5802;52.832;4.758;2024-01-30T04:16:33;3.10;;;2.40;;
11490;SDS011;5802;52.832;4.758;2024-01-30T04:19:01;2.95;;;2.30;;
11490;SDS011;5802;52.832;4.758;2024-01-30T04:21:29;2.47;;;2.03;;
11490;SDS011;5802;52.832;4.758;2024-01-30T04:23:56;2.45;;;2.10;;
11490;SDS011;5802;52.832;4.758;2024-01-30T04:26:23;2.75;;;2.10;;
11490;SDS011;5802;52.832;4.758;2024-01-30T04:28:49;2.78;;;2.47;;
11490;SDS011;5802;52.832;4.758;2024-01-30T04:31:16;2.50;;;2.28;;
11490;SDS011;5802;52.832;4.758;2024-01-30T04:33:43;3.58;;;2.30;;
11490;SDS011;5802;52.832;4.758;2024-01-30T04:36:10;3.28;;;2.20;;
11490;SDS011;5802;52.832;4.758;2024-01-30T04:38:38;3.38;;;2.30;;
11490;SDS011;5802;52.832;4.758;2024-01-30T04:41:04;2.67;;;2.28;;
11490;SDS011;5802;52.832;4.758;2024-01-30T04:43:31;3.05;;;2.00;;
11490;SDS011;5802;52.832;4.758;2024-01-30T04:45:58;2.60;;;2.20;;
11490;SDS011;5802;52.832;4.758;2024-01-30T04:48:25;3.22;;;2.28;;
11490;SDS011;5802;52.832;4.758;2024-01-30T04:50:51;3.60;;;2.30;;
11490;SDS011;5802;52.832;4.758;2024-01-30T04:53:18;2.65;;;2.05;;
11490;SDS011;5802;52.832;4.758;2024-01-30T04:55:46;2.35;;;2.05;;
11490;SDS011;5802;52.832;4.758;2024-01-30T04:58:13;2.78;;;2.17;;
11490;SDS011;5802;52.832;4.758;2024-01-30T05:00:40;2.95;;;2.20;;
11490;SDS011;5802;52.832;4.758;2024-01-30T05:03:07;2.33;;;1.90;;
11490;SDS011;5802;52.832;4.758;2024-01-30T05:05:34;2.13;;;1.90;;
11490;SDS011;5802;52.832;4.758;2024-01-30T05:08:00;2.25;;;2.00;;
11490;SDS011;5802;52.832;4.758;2024-01-30T05:10:27;2.60;;;2.30;;
11490;SDS011;5802;52.832;4.758;2024-01-30T05:12:56;2.42;;;2.10;;
11490;SDS011;5802;52.832;4.758;2024-01-30T05:15:23;3.38;;;2.05;;
11490;SDS011;5802;52.832;4.758;2024-01-30T05:17:49;5.80;;;2.30;;
11490;SDS011;5802;52.832;4.758;2024-01-30T05:20:16;3.08;;;2.30;;
11490;SDS011;5802;52.832;4.758;2024-01-30T05:22:43;5.50;;;2.50;;
11490;SDS011;5802;52.832;4.758;2024-01-30T05:25:11;3.28;;;2.30;;
11490;SDS011;5802;52.832;4.758;2024-01-30T05:27:38;4.22;;;2.85;;
11490;SDS011;5802;52.832;4.758;2024-01-30T05:30:07;2.50;;;2.00;;
11490;SDS011;5802;52.832;4.758;2024-01-30T05:32:34;2.72;;;1.98;;
11490;SDS011;5802;52.832;4.758;2024-01-30T05:35:01;4.20;;;2.40;;
11490;SDS011;5802;52.832;4.758;2024-01-30T05:37:29;4.30;;;2.30;;
11490;SDS011;5802;52.832;4.758;2024-01-30T05:39:56;3.85;;;2.50;;
11490;SDS011;5802;52.832;4.758;2024-01-30T05:42:22;3.03;;;2.38;;
11490;SDS011;5802;52.832;4.758;2024-01-30T05:44:49;4.05;;;2.10;;
11490;SDS011;5802;52.832;4.758;2024-01-30T05:47:17;3.10;;;2.55;;
11490;SDS011;5802;52.832;4.758;2024-01-30T05:49:44;2.80;;;2.22;;
11490;SDS011;5802;52.832;4.758;2024-01-30T05:52:11;3.25;;;2.25;;
11490;SDS011;5802;52.832;4.758;2024-01-30T05:54:38;3.30;;;2.13;;
11490;SDS011;5802;52.832;4.758;2024-01-30T05:57:05;2.17;;;1.95;;
11490;SDS011;5802;52.832;4.758;2024-01-30T05:59:32;3.30;;;2.13;;
11490;SDS011;5802;52.832;4.758;2024-01-30T06:01:58;2.20;;;1.90;;
11490;SDS011;5802;52.832;4.758;2024-01-30T06:04:27;2.65;;;2.10;;
11490;SDS011;5802;52.832;4.758;2024-01-30T06:06:53;4.20;;;2.33;;
11490;SDS011;5802;52.832;4.758;2024-01-30T06:09:20;3.25;;;2.30;;
11490;SDS011;5802;52.832;4.758;2024-01-30T06:11:47;2.78;;;2.00;;
11490;SDS011;5802;52.832;4.758;2024-01-30T06:14:14;2.95;;;2.17;;
11490;SDS011;5802;52.832;4.758;2024-01-30T06:16:41;2.38;;;2.17;;
11490;SDS011;5802;52.832;4.758;2024-01-30T06:19:08;3.50;;;2.42;;
11490;SDS011;5802;52.832;4.758;2024-01-30T06:21:36;3.88;;;1.98;;
11490;SDS011;5802;52.832;4.758;2024-01-30T06:24:03;3.33;;;2.20;;
11490;SDS011;5802;52.832;4.758;2024-01-30T06:26:30;4.25;;;2.20;;
11490;SDS011;5802;52.832;4.758;2024-01-30T06:28:57;3.35;;;2.33;;
11490;SDS011;5802;52.832;4.758;2024-01-30T06:31:24;3.42;;;2.10;;
11490;SDS011;5802;52.832;4.758;2024-01-30T06:33:51;3.10;;;2.20;;
11490;SDS011;5802;52.832;4.758;2024-01-30T06:36:18;3.35;;;2.00;;
11490;SDS011;5802;52.832;4.758;2024-01-30T06:38:46;2.40;;;2.10;;
11490;SDS011;5802;52.832;4.758;2024-01-30T06:41:13;3.58;;;1.90;;
11490;SDS011;5802;52.832;4.758;2024-01-30T06:43:40;2.22;;;2.03;;
11490;SDS011;5802;52.832;4.758;2024-01-30T06:46:07;3.47;;;2.08;;
11490;SDS011;5802;52.832;4.758;2024-01-30T06:48:34;2.45;;;2.05;;
11490;SDS011;5802;52.832;4.758;2024-01-30T06:51:00;2.92;;;1.90;;
11490;SDS011;5802;52.832;4.758;2024-01-30T06:53:27;2.05;;;1.70;;
11490;SDS011;5802;52.832;4.758;2024-01-30T06:55:55;2.40;;;1.85;;
11490;SDS011;5802;52.832;4.758;2024-01-30T06:58:22;1.90;;;1.70;;
11490;SDS011;5802;52.832;4.758;2024-01-30T07:00:49;2.20;;;1.85;;
11490;SDS011;5802;52.832;4.758;2024-01-30T07:03:16;2.65;;;2.10;;
11490;SDS011;5802;52.832;4.758;2024-01-30T07:05:43;3.22;;;1.90;;
11490;SDS011;5802;52.832;4.758;2024-01-30T07:08:10;2.80;;;2.10;;
11490;SDS011;5802;52.832;4.758;2024-01-30T07:10:36;3.03;;;2.00;;
11490;SDS011;5802;52.832;4.758;2024-01-30T07:13:05;2.38;;;1.90;;
11490;SDS011;5802;52.832;4.758;2024-01-30T07:15:32;2.38;;;1.75;;
11490;SDS011;5802;52.832;4.758;2024-01-30T07:17:59;2.83;;;2.00;;
11490;SDS011;5802;52.832;4.758;2024-01-30T07:20:25;2.88;;;2.05;;
11490;SDS011;5802;52.832;4.758;2024-01-30T07:22:52;3.17;;;1.80;;
11490;SDS011;5802;52.832;4.758;2024-01-30T07:25:19;2.53;;;1.80;;
11490;SDS011;5802;52.832;4.758;2024-01-30T07:27:46;3.50;;;2.20;;
11490;SDS011;5802;52.832;4.758;2024-01-30T07:30:15;2.60;;;1.88;;
11490;SDS011;5802;52.832;4.758;2024-01-30T07:32:42;2.83;;;2.13;;
11490;SDS011;5802;52.832;4.758;2024-01-30T07:35:09;5.00;;;2.55;;
11490;SDS011;5802;52.832;4.758;2024-01-30T07:37:36;3.78;;;2.00;;
11490;SDS011;5802;52.832;4.758;2024-01-30T07:40:03;3.03;;;2.13;;
11490;SDS011;5802;52.832;4.758;2024-01-30T07:42:31;1.75;;;1.65;;
11490;SDS011;5802;52.832;4.758;2024-01-30T07:44:58;3.15;;;2.22;;
11490;SDS011;5802;52.832;4.758;2024-01-30T07:47:27;2.30;;;2.00;;
11490;SDS011;5802;52.832;4.758;2024-01-30T07:49:54;3.15;;;2.20;;
11490;SDS011;5802;52.832;4.758;2024-01-30T07:52:21;3.47;;;2.03;;
11490;SDS011;5802;52.832;4.758;2024-01-30T07:54:48;3.10;;;2.15;;
11490;SDS011;5802;52.832;4.758;2024-01-30T07:57:15;2.28;;;1.90;;
11490;SDS011;5802;52.832;4.758;2024-01-30T07:59:42;3.40;;;2.00;;
11490;SDS011;5802;52.832;4.758;2024-01-30T08:02:10;3.17;;;2.00;;
11490;SDS011;5802;52.832;4.758;2024-01-30T08:04:39;3.22;;;2.10;;
11490;SDS011;5802;52.832;4.758;2024-01-30T08:07:06;2.50;;;2.05;;
11490;SDS011;5802;52.832;4.758;2024-01-30T08:09:33;3.40;;;2.25;;
11490;SDS011;5802;52.832;4.758;2024-01-30T08:12:00;3.35;;;2.55;;
11490;SDS011;5802;52.832;4.758;2024-01-30T08:14:26;3.95;;;2.10;;
11490;SDS011;5802;52.832;4.758;2024-01-30T08:16:53;2.65;;;2.30;;
11490;SDS011;5802;52.832;4.758;2024-01-30T08:19:20;3.17;;;2.05;;
11490;SDS011;5802;52.832;4.758;2024-01-30T08:21:48;4.18;;;2.33;;
11490;SDS011;5802;52.832;4.758;2024-01-30T08:24:15;5.45;;;2.50;;
11490;SDS011;5802;52.832;4.758;2024-01-30T08:26:41;2.78;;;2.20;;
11490;SDS011;5802;52.832;4.758;2024-01-30T08:29:08;3.47;;;2.03;;
11490;SDS011;5802;52.832;4.758;2024-01-30T08:31:35;3.25;;;2.50;;
11490;SDS011;5802;52.832;4.758;2024-01-30T08:34:02;3.10;;;2.13;;
11490;SDS011;5802;52.832;4.758;2024-01-30T08:36:29;3.45;;;2.38;;
11490;SDS011;5802;52.832;4.758;2024-01-30T08:38:57;4.38;;;2.33;;
11490;SDS011;5802;52.832;4.758;2024-01-30T08:41:24;5.05;;;2.53;;
11490;SDS011;5802;52.832;4.758;2024-01-30T08:43:51;3.92;;;2.20;;
11490;SDS011;5802;52.832;4.758;2024-01-30T08:46:18;4.75;;;2.40;;
11490;SDS011;5802;52.832;4.758;2024-01-30T08:48:45;3.47;;;2.60;;
11490;SDS011;5802;52.832;4.758;2024-01-30T08:51:12;3.30;;;2.20;;
11490;SDS011;5802;52.832;4.758;2024-01-30T08:53:40;4.22;;;2.60;;
11490;SDS011;5802;52.832;4.758;2024-01-30T08:56:08;4.13;;;2.63;;
11490;SDS011;5802;52.832;4.758;2024-01-30T08:58:35;3.20;;;2.25;;
11490;SDS011;5802;52.832;4.758;2024-01-30T09:01:02;4.13;;;2.33;;
11490;SDS011;5802;52.832;4.758;2024-01-30T09:03:30;4.95;;;2.15;;
11490;SDS011;5802;52.832;4.758;2024-01-30T09:05:57;3.40;;;2.22;;
11490;SDS011;5802;52.832;4.758;2024-01-30T09:08:24;4.50;;;2.30;;
11490;SDS011;5802;52.832;4.758;2024-01-30T09:10:51;4.47;;;2.38;;
11490;SDS011;5802;52.832;4.758;2024-01-30T09:13:19;4.35;;;2.67;;
11490;SDS011;5802;52.832;4.758;2024-01-30T09:15:46;4.07;;;2.47;;
11490;SDS011;5802;52.832;4.758;2024-01-30T09:18:13;3.03;;;2.00;;
11490;SDS011;5802;52.832;4.758;2024-01-30T09:20:39;3.30;;;2.25;;
11490;SDS011;5802;52.832;4.758;2024-01-30T09:23:06;5.57;;;2.35;;
11490;SDS011;5802;52.832;4.758;2024-01-30T09:25:33;5.65;;;2.67;;
11490;SDS011;5802;52.832;4.758;2024-01-30T09:28:00;4.07;;;2.25;;
11490;SDS011;5802;52.832;4.758;2024-01-30T09:30:28;3.78;;;2.45;;
11490;SDS011;5802;52.832;4.758;2024-01-30T09:32:55;4.25;;;2.20;;
11490;SDS011;5802;52.832;4.758;2024-01-30T09:35:22;4.43;;;2.22;;
11490;SDS011;5802;52.832;4.758;2024-01-30T09:37:49;3.42;;;2.15;;
11490;SDS011;5802;52.832;4.758;2024-01-30T09:40:16;3.42;;;2.50;;
11490;SDS011;5802;52.832;4.758;2024-01-30T09:42:44;2.50;;;2.05;;
11490;SDS011;5802;52.832;4.758;2024-01-30T09:45:13;3.20;;;2.30;;
11490;SDS011;5802;52.832;4.758;2024-01-30T09:47:42;3.67;;;2.08;;
11490;SDS011;5802;52.832;4.758;2024-01-30T09:50:11;3.00;;;1.92;;
11490;SDS011;5802;52.832;4.758;2024-01-30T09:52:38;2.70;;;1.80;;
11490;SDS011;5802;52.832;4.758;2024-01-30T09:55:05;3.92;;;2.08;;
11490;SDS011;5802;52.832;4.758;2024-01-30T09:57:33;2.42;;;1.65;;
11490;SDS011;5802;52.832;4.758;2024-01-30T10:00:00;5.50;;;2.00;;
11490;SDS011;5802;52.832;4.758;2024-01-30T10:02:27;2.35;;;1.88;;
11490;SDS011;5802;52.832;4.758;2024-01-30T10:04:56;3.03;;;1.80;;
11490;SDS011;5802;52.832;4.758;2024-01-30T10:07:22;4.30;;;1.90;;
11490;SDS011;5802;52.832;4.758;2024-01-30T10:09:49;3.25;;;1.80;;
11490;SDS011;5802;52.832;4.758;2024-01-30T10:12:16;3.63;;;1.80;;
11490;SDS011;5802;52.832;4.758;2024-01-30T10:14:43;3.05;;;1.83;;
11490;SDS011;5802;52.832;4.758;2024-01-30T10:17:10;2.85;;;1.98;;
11490;SDS011;5802;52.832;4.758;2024-01-30T10:19:39;3.22;;;1.83;;
11490;SDS011;5802;52.832;4.758;2024-01-30T10:22:09;3.78;;;1.63;;
11490;SDS011;5802;52.832;4.758;2024-01-30T10:24:36;4.93;;;2.10;;
11490;SDS011;5802;52.832;4.758;2024-01-30T10:27:05;7.70;;;1.95;;
11490;SDS011;5802;52.832;4.758;2024-01-30T10:29:32;6.45;;;2.05;;
11490;SDS011;5802;52.832;4.758;2024-01-30T10:31:59;8.85;;;2.45;;
11490;SDS011;5802;52.832;4.758;2024-01-30T10:34:26;8.27;;;2.13;;
11490;SDS011;5802;52.832;4.758;2024-01-30T10:36:55;12.55;;;2.20;;
11490;SDS011;5802;52.832;4.758;2024-01-30T10:39:29;10.45;;;2.33;;
11490;SDS011;5802;52.832;4.758;2024-01-30T10:41:59;16.90;;;2.85;;
11490;SDS011;5802;52.832;4.758;2024-01-30T10:44:33;17.60;;;2.90;;
11490;SDS011;5802;52.832;4.758;2024-01-30T10:47:06;13.00;;;2.33;;
11490;SDS011;5802;52.832;4.758;2024-01-30T10:49:36;12.38;;;2.83;;
11490;SDS011;5802;52.832;4.758;2024-01-30T10:52:04;7.85;;;3.00;;
11490;SDS011;5802;52.832;4.758;2024-01-30T10:54:33;7.40;;;2.55;;
11490;SDS011;5802;52.832;4.758;2024-01-30T10:57:02;11.15;;;2.45;;
11490;SDS011;5802;52.832;4.758;2024-01-30T10:59:30;9.05;;;2.03;;
11490;SDS011;5802;52.832;4.758;2024-01-30T11:01:58;10.38;;;2.50;;
11490;SDS011;5802;52.832;4.758;2024-01-30T11:04:26;8.30;;;2.53;;
11490;SDS011;5802;52.832;4.758;2024-01-30T11:06:53;12.65;;;2.78;;
11490;SDS011;5802;52.832;4.758;2024-01-30T11:09:20;12.93;;;2.63;;
11490;SDS011;5802;52.832;4.758;2024-01-30T11:11:52;11.32;;;2.13;;
11490;SDS011;5802;52.832;4.758;2024-01-30T11:14:25;5.05;;;1.90;;
11490;SDS011;5802;52.832;4.758;2024-01-30T11:16:52;9.55;;;2.55;;
11490;SDS011;5802;52.832;4.758;2024-01-30T11:19:22;11.30;;;2.20;;
11490;SDS011;5802;52.832;4.758;2024-01-30T11:21:50;5.63;;;1.70;;
11490;SDS011;5802;52.832;4.758;2024-01-30T11:24:19;4.57;;;1.67;;
11490;SDS011;5802;52.832;4.758;2024-01-30T11:26:47;5.93;;;1.70;;
11490;SDS011;5802;52.832;4.758;2024-01-30T11:29:16;7.97;;;2.10;;
11490;SDS011;5802;52.832;4.758;2024-01-30T11:31:51;4.25;;;1.88;;
11490;SDS011;5802;52.832;4.758;2024-01-30T11:34:18;5.38;;;1.90;;
11490;SDS011;5802;52.832;4.758;2024-01-30T11:36:47;8.70;;;2.20;;
11490;SDS011;5802;52.832;4.758;2024-01-30T11:39:20;4.43;;;1.65;;
11490;SDS011;5802;52.832;4.758;2024-01-30T11:41:47;7.35;;;2.13;;
11490;SDS011;5802;52.832;4.758;2024-01-30T11:44:18;4.30;;;1.65;;
11490;SDS011;5802;52.832;4.758;2024-01-30T11:46:46;5.72;;;1.63;;
11490;SDS011;5802;52.832;4.758;2024-01-30T11:49:14;8.07;;;2.33;;
11490;SDS011;5802;52.832;4.758;2024-01-30T11:51:42;4.88;;;1.65;;
11490;SDS011;5802;52.832;4.758;2024-01-30T11:54:09;5.47;;;1.67;;
11490;SDS011;5802;52.832;4.758;2024-01-30T11:56:36;4.32;;;1.50;;
11490;SDS011;5802;52.832;4.758;2024-01-30T11:59:03;3.47;;;1.63;;
11490;SDS011;5802;52.832;4.758;2024-01-30T12:01:31;5.95;;;1.77;;
11490;SDS011;5802;52.832;4.758;2024-01-30T12:03:59;4.47;;;1.60;;
11490;SDS011;5802;52.832;4.758;2024-01-30T12:06:26;5.93;;;2.00;;
11490;SDS011;5802;52.832;4.758;2024-01-30T12:08:57;8.30;;;1.50;;
11490;SDS011;5802;52.832;4.758;2024-01-30T12:11:25;4.93;;;2.08;;
11490;SDS011;5802;52.832;4.758;2024-01-30T12:13:52;5.53;;;1.60;;
11490;SDS011;5802;52.832;4.758;2024-01-30T12:16:19;3.75;;;1.30;;
11490;SDS011;5802;52.832;4.758;2024-01-30T12:18:48;3.25;;;1.55;;
11490;SDS011;5802;52.832;4.758;2024-01-30T12:21:16;2.63;;;1.45;;
11490;SDS011;5802;52.832;4.758;2024-01-30T12:23:44;6.28;;;1.67;;
11490;SDS011;5802;52.832;4.758;2024-01-30T12:26:11;3.63;;;1.33;;
11490;SDS011;5802;52.832;4.758;2024-01-30T12:28:47;7.68;;;1.77;;
11490;SDS011;5802;52.832;4.758;2024-01-30T12:31:15;3.63;;;1.40;;
11490;SDS011;5802;52.832;4.758;2024-01-30T12:33:42;3.78;;;1.55;;
11490;SDS011;5802;52.832;4.758;2024-01-30T12:36:11;5.05;;;1.40;;
11490;SDS011;5802;52.832;4.758;2024-01-30T12:38:37;2.90;;;1.30;;
11490;SDS011;5802;52.832;4.758;2024-01-30T12:41:06;3.92;;;1.70;;
11490;SDS011;5802;52.832;4.758;2024-01-30T12:43:34;1.98;;;1.20;;
11490;SDS011;5802;52.832;4.758;2024-01-30T12:46:01;5.28;;;1.30;;
11490;SDS011;5802;52.832;4.758;2024-01-30T12:48:28;3.22;;;1.60;;
11490;SDS011;5802;52.832;4.758;2024-01-30T12:50:55;4.60;;;1.52;;
11490;SDS011;5802;52.832;4.758;2024-01-30T12:53:24;4.07;;;1.48;;
11490;SDS011;5802;52.832;4.758;2024-01-30T12:55:50;2.88;;;1.27;;
11490;SDS011;5802;52.832;4.758;2024-01-30T12:58:19;4.05;;;1.77;;
11490;SDS011;5802;52.832;4.758;2024-01-30T13:00:46;3.15;;;1.30;;
11490;SDS011;5802;52.832;4.758;2024-01-30T13:03:13;2.95;;;1.27;;
11490;SDS011;5802;52.832;4.758;2024-01-30T13:05:40;3.00;;;1.27;;
11490;SDS011;5802;52.832;4.758;2024-01-30T13:08:06;4.28;;;1.48;;
11490;SDS011;5802;52.832;4.758;2024-01-30T13:10:35;6.03;;;1.58;;
11490;SDS011;5802;52.832;4.758;2024-01-30T13:13:02;4.00;;;1.15;;
11490;SDS011;5802;52.832;4.758;2024-01-30T13:15:29;3.42;;;1.20;;
11490;SDS011;5802;52.832;4.758;2024-01-30T13:17:56;2.97;;;1.30;;
11490;SDS011;5802;52.832;4.758;2024-01-30T13:20:22;4.22;;;1.55;;
11490;SDS011;5802;52.832;4.758;2024-01-30T13:22:49;2.80;;;1.30;;
11490;SDS011;5802;52.832;4.758;2024-01-30T13:25:16;2.95;;;1.33;;
11490;SDS011;5802;52.832;4.758;2024-01-30T13:27:45;2.83;;;1.20;;
11490;SDS011;5802;52.832;4.758;2024-01-30T13:30:12;3.08;;;1.38;;
11490;SDS011;5802;52.832;4.758;2024-01-30T13:32:39;3.80;;;1.38;;
11490;SDS011;5802;52.832;4.758;2024-01-30T13:35:09;2.20;;;1.17;;
11490;SDS011;5802;52.832;4.758;2024-01-30T13:37:36;2.17;;;1.20;;
11490;SDS011;5802;52.832;4.758;2024-01-30T13:40:03;2.35;;;1.20;;
11490;SDS011;5802;52.832;4.758;2024-01-30T13:42:32;1.67;;;0.93;;
11490;SDS011;5802;52.832;4.758;2024-01-30T13:45:00;4.78;;;1.30;;
11490;SDS011;5802;52.832;4.758;2024-01-30T13:47:27;2.65;;;1.15;;
11490;SDS011;5802;52.832;4.758;2024-01-30T13:49:54;2.83;;;1.05;;
11490;SDS011;5802;52.832;4.758;2024-01-30T13:52:22;2.83;;;1.08;;
11490;SDS011;5802;52.832;4.758;2024-01-30T13:54:49;1.63;;;1.00;;
11490;SDS011;5802;52.832;4.758;2024-01-30T13:57:16;2.17;;;1.20;;
11490;SDS011;5802;52.832;4.758;2024-01-30T13:59:43;2.53;;;1.10;;
11490;SDS011;5802;52.832;4.758;2024-01-30T14:02:11;2.30;;;1.15;;
11490;SDS011;5802;52.832;4.758;2024-01-30T14:04:39;1.75;;;0.90;;
11490;SDS011;5802;52.832;4.758;2024-01-30T14:07:05;1.63;;;1.00;;
11490;SDS011;5802;52.832;4.758;2024-01-30T14:09:32;1.70;;;1.00;;
11490;SDS011;5802;52.832;4.758;2024-01-30T14:11:59;3.17;;;1.13;;
11490;SDS011;5802;52.832;4.758;2024-01-30T14:14:26;1.83;;;1.00;;
11490;SDS011;5802;52.832;4.758;2024-01-30T14:16:53;1.30;;;0.93;;
11490;SDS011;5802;52.832;4.758;2024-01-30T14:19:21;3.65;;;1.15;;
11490;SDS011;5802;52.832;4.758;2024-01-30T14:21:48;3.28;;;1.30;;
11490;SDS011;5802;52.832;4.758;2024-01-30T14:24:15;2.47;;;1.15;;
11490;SDS011;5802;52.832;4.758;2024-01-30T14:26:42;3.10;;;0.90;;
11490;SDS011;5802;52.832;4.758;2024-01-30T14:29:09;2.47;;;0.98;;
11490;SDS011;5802;52.832;4.758;2024-01-30T14:31:36;2.35;;;1.00;;
11490;SDS011;5802;52.832;4.758;2024-01-30T14:34:03;1.48;;;0.85;;
11490;SDS011;5802;52.832;4.758;2024-01-30T14:36:31;2.88;;;1.00;;
11490;SDS011;5802;52.832;4.758;2024-01-30T14:38:58;2.95;;;1.05;;
11490;SDS011;5802;52.832;4.758;2024-01-30T14:41:24;2.00;;;0.98;;
11490;SDS011;5802;52.832;4.758;2024-01-30T14:43:52;1.58;;;0.93;;
11490;SDS011;5802;52.832;4.758;2024-01-30T14:46:18;3.30;;;1.20;;
11490;SDS011;5802;52.832;4.758;2024-01-30T14:48:45;2.55;;;1.00;;
11490;SDS011;5802;52.832;4.758;2024-01-30T14:51:13;2.15;;;1.05;;
11490;SDS011;5802;52.832;4.758;2024-01-30T14:53:41;3.05;;;1.17;;
11490;SDS011;5802;52.832;4.758;2024-01-30T14:56:08;1.33;;;0.90;;
11490;SDS011;5802;52.832;4.758;2024-01-30T14:58:35;2.17;;;1.20;;
11490;SDS011;5802;52.832;4.758;2024-01-30T15:01:02;2.05;;;1.05;;